Portada
METAR-TAF:

METAR-TAF

Aeroports :

Sevilla, Espanya

latitud: 37-25N, longitud: 005-54W, altitud: 34 m

Observació

L'informe es va fer fa 25 minuts, a les 17:30 UTC
Vent 5 kt del Est/Sud-Est, variant entre Est i Sud/Sud-Est
Temperatura 20°C
Humitat 60%
Pressió 1011 hPa
Visibilitat 10 km o més
Escasses núvols a una alçada de 4500 ft

METAR: LEZL 191730Z 12005KT 100V160 9999 FEW045 20/12 Q1011 NOSIG

Hora: 19:55 (17:55 UTC)

Pronòstic

L'informe es va fer fa 3 hores i 55 minuts, a les 14:00 UTC
Pronòstic vàlid del 19 a les 15 UTC al 20 a les 15 UTC
Vent 6 kt del Est/Nord-Est
Visibilitat 10 km o més
Núvols disperses a una alçada de 3000 ft
Probabilitat 40% :
Temporalment
l' 20 a les 09 UTC al 20 a les 15 UTC
Visibilitat: 4000 m
Cel ennuvolat a una alçada de 3000 ft, Cumulonimbus.
xàfecs de pluja

TAF: LEZL 191400Z 1915/2015 07006KT 9999 SCT030 TX22/1915Z TN13/2006Z PROB40 TEMPO 2009/2015 4000 SHRA BKN030CB

Observacions i pronòstics meteorològics de més de 4000 aeroports (METAR i TAF).

Les estacions disponibles són els punts grocs i vermells al mapa.

Posi el ratolí al punt desitjat per veure el nom de l'estació.

Feu clic per veure les observacions i els pronòstics meteorològics.

Per canviar el mapa: feu clic els botons verds amb una creu de color negre per apropar; al botó verd amb un guió per allunyar la imatge; o en les fletxes verdes per a mapes adjacents.


METAR-TAF: